sensor_id;sensor_type;location;lat;lon;timestamp;temperature;humidity
6407;DHT22;3236;51.022;6.818;2023-04-16T00:00:25;8.00;99.90
6407;DHT22;3236;51.022;6.818;2023-04-16T00:02:53;8.10;99.90
6407;DHT22;3236;51.022;6.818;2023-04-16T00:05:21;8.20;99.90
6407;DHT22;3236;51.022;6.818;2023-04-16T00:07:48;8.00;99.90
6407;DHT22;3236;51.022;6.818;2023-04-16T00:10:16;7.90;99.90
6407;DHT22;3236;51.022;6.818;2023-04-16T00:12:43;8.10;99.90
6407;DHT22;3236;51.022;6.818;2023-04-16T00:15:10;8.20;99.90
6407;DHT22;3236;51.022;6.818;2023-04-16T00:17:37;8.10;99.90
6407;DHT22;3236;51.022;6.818;2023-04-16T00:20:05;8.40;99.90
6407;DHT22;3236;51.022;6.818;2023-04-16T00:22:34;8.10;99.90
6407;DHT22;3236;51.022;6.818;2023-04-16T00:25:05;8.10;99.90
6407;DHT22;3236;51.022;6.818;2023-04-16T00:27:32;8.10;99.90
6407;DHT22;3236;51.022;6.818;2023-04-16T00:30:02;8.10;99.90
6407;DHT22;3236;51.022;6.818;2023-04-16T00:32:29;8.10;99.90
6407;DHT22;3236;51.022;6.818;2023-04-16T00:34:56;8.30;99.90
6407;DHT22;3236;51.022;6.818;2023-04-16T00:37:23;8.10;99.90
6407;DHT22;3236;51.022;6.818;2023-04-16T00:39:51;8.10;99.90
6407;DHT22;3236;51.022;6.818;2023-04-16T00:42:18;8.50;99.90
6407;DHT22;3236;51.022;6.818;2023-04-16T00:44:51;9.50;99.90
6407;DHT22;3236;51.022;6.818;2023-04-16T00:47:18;8.00;99.90
6407;DHT22;3236;51.022;6.818;2023-04-16T00:49:46;8.20;99.90
6407;DHT22;3236;51.022;6.818;2023-04-16T00:52:13;8.00;99.90
6407;DHT22;3236;51.022;6.818;2023-04-16T00:54:40;8.10;99.90
6407;DHT22;3236;51.022;6.818;2023-04-16T00:57:09;8.40;99.90
6407;DHT22;3236;51.022;6.818;2023-04-16T00:59:36;8.20;99.90
6407;DHT22;3236;51.022;6.818;2023-04-16T01:02:03;8.20;99.90
6407;DHT22;3236;51.022;6.818;2023-04-16T01:04:30;8.20;99.90
6407;DHT22;3236;51.022;6.818;2023-04-16T01:06:58;8.10;99.90
6407;DHT22;3236;51.022;6.818;2023-04-16T01:09:25;8.30;99.90
6407;DHT22;3236;51.022;6.818;2023-04-16T01:11:52;8.30;99.90
6407;DHT22;3236;51.022;6.818;2023-04-16T01:14:21;8.20;99.90
6407;DHT22;3236;51.022;6.818;2023-04-16T01:16:48;8.00;99.90
6407;DHT22;3236;51.022;6.818;2023-04-16T01:19:15;8.10;99.90
6407;DHT22;3236;51.022;6.818;2023-04-16T01:21:43;8.10;99.90
6407;DHT22;3236;51.022;6.818;2023-04-16T01:24:10;8.20;99.90
6407;DHT22;3236;51.022;6.818;2023-04-16T01:26:37;8.40;99.90
6407;DHT22;3236;51.022;6.818;2023-04-16T01:29:04;8.50;99.90
6407;DHT22;3236;51.022;6.818;2023-04-16T01:31:31;8.10;99.90
6407;DHT22;3236;51.022;6.818;2023-04-16T01:33:58;8.20;99.90
6407;DHT22;3236;51.022;6.818;2023-04-16T01:36:32;8.20;99.90
6407;DHT22;3236;51.022;6.818;2023-04-16T01:39:00;8.20;99.90
6407;DHT22;3236;51.022;6.818;2023-04-16T01:41:27;8.20;99.90
6407;DHT22;3236;51.022;6.818;2023-04-16T01:43:55;8.10;99.90
6407;DHT22;3236;51.022;6.818;2023-04-16T01:46:26;8.20;99.90
6407;DHT22;3236;51.022;6.818;2023-04-16T01:48:54;8.20;99.90
6407;DHT22;3236;51.022;6.818;2023-04-16T01:51:21;8.00;99.90
6407;DHT22;3236;51.022;6.818;2023-04-16T01:53:48;8.20;99.90
6407;DHT22;3236;51.022;6.818;2023-04-16T01:56:20;8.20;99.90
6407;DHT22;3236;51.022;6.818;2023-04-16T01:58:47;8.20;99.90
6407;DHT22;3236;51.022;6.818;2023-04-16T02:01:15;8.10;99.90
6407;DHT22;3236;51.022;6.818;2023-04-16T02:03:42;8.10;99.90
6407;DHT22;3236;51.022;6.818;2023-04-16T02:09:19;8.20;99.90
6407;DHT22;3236;51.022;6.818;2023-04-16T02:11:47;8.10;99.90
6407;DHT22;3236;51.022;6.818;2023-04-16T02:14:14;8.10;99.90
6407;DHT22;3236;51.022;6.818;2023-04-16T02:16:41;8.20;99.90
6407;DHT22;3236;51.022;6.818;2023-04-16T02:19:08;8.10;99.90
6407;DHT22;3236;51.022;6.818;2023-04-16T02:21:36;8.10;99.90
6407;DHT22;3236;51.022;6.818;2023-04-16T02:24:04;8.10;99.90
6407;DHT22;3236;51.022;6.818;2023-04-16T02:26:32;8.10;99.90
6407;DHT22;3236;51.022;6.818;2023-04-16T02:29:00;8.40;99.90
6407;DHT22;3236;51.022;6.818;2023-04-16T02:31:28;8.20;99.90
6407;DHT22;3236;51.022;6.818;2023-04-16T02:33:56;8.20;99.90
6407;DHT22;3236;51.022;6.818;2023-04-16T02:36:26;8.20;99.90
6407;DHT22;3236;51.022;6.818;2023-04-16T02:38:53;8.10;99.90
6407;DHT22;3236;51.022;6.818;2023-04-16T02:41:19;8.20;99.90
6407;DHT22;3236;51.022;6.818;2023-04-16T02:43:47;8.20;99.90
6407;DHT22;3236;51.022;6.818;2023-04-16T02:46:15;8.50;99.90
6407;DHT22;3236;51.022;6.818;2023-04-16T02:48:42;9.00;99.90
6407;DHT22;3236;51.022;6.818;2023-04-16T02:51:09;8.20;99.90
6407;DHT22;3236;51.022;6.818;2023-04-16T02:56:04;8.10;99.90
6407;DHT22;3236;51.022;6.818;2023-04-16T02:58:31;8.40;99.90
6407;DHT22;3236;51.022;6.818;2023-04-16T03:00:58;8.50;99.90
6407;DHT22;3236;51.022;6.818;2023-04-16T03:03:26;8.10;99.90
6407;DHT22;3236;51.022;6.818;2023-04-16T03:05:53;8.20;99.90
6407;DHT22;3236;51.022;6.818;2023-04-16T03:08:21;8.30;99.90
6407;DHT22;3236;51.022;6.818;2023-04-16T03:10:47;8.10;99.90
6407;DHT22;3236;51.022;6.818;2023-04-16T03:13:15;8.10;99.90
6407;DHT22;3236;51.022;6.818;2023-04-16T03:15:47;8.20;99.90
6407;DHT22;3236;51.022;6.818;2023-04-16T03:18:14;8.20;99.90
6407;DHT22;3236;51.022;6.818;2023-04-16T03:20:42;8.20;99.90
6407;DHT22;3236;51.022;6.818;2023-04-16T03:23:10;8.20;99.90
6407;DHT22;3236;51.022;6.818;2023-04-16T03:25:37;8.20;99.90
6407;DHT22;3236;51.022;6.818;2023-04-16T03:28:05;8.20;99.90
6407;DHT22;3236;51.022;6.818;2023-04-16T03:30:32;8.20;99.90
6407;DHT22;3236;51.022;6.818;2023-04-16T03:32:59;8.20;99.90
6407;DHT22;3236;51.022;6.818;2023-04-16T03:35:26;8.20;99.90
6407;DHT22;3236;51.022;6.818;2023-04-16T03:37:54;8.20;99.90
6407;DHT22;3236;51.022;6.818;2023-04-16T03:40:21;8.20;99.90
6407;DHT22;3236;51.022;6.818;2023-04-16T03:42:51;8.40;99.90
6407;DHT22;3236;51.022;6.818;2023-04-16T03:45:18;8.20;99.90
6407;DHT22;3236;51.022;6.818;2023-04-16T03:47:45;8.20;99.90
6407;DHT22;3236;51.022;6.818;2023-04-16T03:50:17;8.20;99.90
6407;DHT22;3236;51.022;6.818;2023-04-16T03:52:44;8.20;99.90
6407;DHT22;3236;51.022;6.818;2023-04-16T03:55:13;8.20;99.90
6407;DHT22;3236;51.022;6.818;2023-04-16T03:57:46;8.30;99.90
6407;DHT22;3236;51.022;6.818;2023-04-16T04:00:13;8.60;99.90
6407;DHT22;3236;51.022;6.818;2023-04-16T04:02:47;8.30;99.90
6407;DHT22;3236;51.022;6.818;2023-04-16T04:05:14;8.30;99.90
6407;DHT22;3236;51.022;6.818;2023-04-16T04:07:41;8.30;99.90
6407;DHT22;3236;51.022;6.818;2023-04-16T04:10:08;8.50;99.90
6407;DHT22;3236;51.022;6.818;2023-04-16T04:12:37;8.40;99.90
6407;DHT22;3236;51.022;6.818;2023-04-16T04:15:05;8.30;99.90
6407;DHT22;3236;51.022;6.818;2023-04-16T04:17:41;8.30;99.90
6407;DHT22;3236;51.022;6.818;2023-04-16T04:20:10;8.00;99.90
6407;DHT22;3236;51.022;6.818;2023-04-16T04:22:37;8.50;99.90
6407;DHT22;3236;51.022;6.818;2023-04-16T04:25:04;8.30;99.90
6407;DHT22;3236;51.022;6.818;2023-04-16T04:27:37;8.30;99.90
6407;DHT22;3236;51.022;6.818;2023-04-16T04:30:05;8.30;99.90
6407;DHT22;3236;51.022;6.818;2023-04-16T04:32:32;8.30;99.90
6407;DHT22;3236;51.022;6.818;2023-04-16T04:35:00;8.30;99.90
6407;DHT22;3236;51.022;6.818;2023-04-16T04:37:28;8.30;99.90
6407;DHT22;3236;51.022;6.818;2023-04-16T04:39:55;8.40;99.90
6407;DHT22;3236;51.022;6.818;2023-04-16T04:42:23;8.40;99.90
6407;DHT22;3236;51.022;6.818;2023-04-16T04:44:52;8.40;99.90
6407;DHT22;3236;51.022;6.818;2023-04-16T04:47:25;8.40;99.90
6407;DHT22;3236;51.022;6.818;2023-04-16T04:49:51;8.40;99.90
6407;DHT22;3236;51.022;6.818;2023-04-16T04:52:21;8.40;99.90
6407;DHT22;3236;51.022;6.818;2023-04-16T04:54:48;8.70;99.90
6407;DHT22;3236;51.022;6.818;2023-04-16T04:57:15;8.80;99.90
6407;DHT22;3236;51.022;6.818;2023-04-16T04:59:42;8.50;99.90
6407;DHT22;3236;51.022;6.818;2023-04-16T05:02:11;8.40;99.90
6407;DHT22;3236;51.022;6.818;2023-04-16T05:04:38;8.20;99.90
6407;DHT22;3236;51.022;6.818;2023-04-16T05:07:05;8.40;99.90
6407;DHT22;3236;51.022;6.818;2023-04-16T05:09:32;8.40;99.90
6407;DHT22;3236;51.022;6.818;2023-04-16T05:11:59;8.40;99.90
6407;DHT22;3236;51.022;6.818;2023-04-16T05:14:26;8.40;99.90
6407;DHT22;3236;51.022;6.818;2023-04-16T05:16:53;8.50;99.90
6407;DHT22;3236;51.022;6.818;2023-04-16T05:19:22;8.40;99.90
6407;DHT22;3236;51.022;6.818;2023-04-16T05:21:49;8.40;99.90
6407;DHT22;3236;51.022;6.818;2023-04-16T05:24:16;8.40;99.90
6407;DHT22;3236;51.022;6.818;2023-04-16T05:26:43;8.50;99.90
6407;DHT22;3236;51.022;6.818;2023-04-16T05:29:10;8.40;99.90
6407;DHT22;3236;51.022;6.818;2023-04-16T05:31:37;8.50;99.90
6407;DHT22;3236;51.022;6.818;2023-04-16T05:34:04;8.50;99.90
6407;DHT22;3236;51.022;6.818;2023-04-16T05:36:32;8.50;99.90
6407;DHT22;3236;51.022;6.818;2023-04-16T05:39:05;8.50;99.90
6407;DHT22;3236;51.022;6.818;2023-04-16T05:41:33;8.50;99.90
6407;DHT22;3236;51.022;6.818;2023-04-16T05:46:27;8.60;99.90
6407;DHT22;3236;51.022;6.818;2023-04-16T05:49:00;8.60;99.90
6407;DHT22;3236;51.022;6.818;2023-04-16T05:51:27;8.80;99.90
6407;DHT22;3236;51.022;6.818;2023-04-16T05:53:56;8.50;99.90
6407;DHT22;3236;51.022;6.818;2023-04-16T05:56:23;8.50;99.90
6407;DHT22;3236;51.022;6.818;2023-04-16T05:58:50;8.40;99.90
6407;DHT22;3236;51.022;6.818;2023-04-16T06:01:17;8.40;99.90
6407;DHT22;3236;51.022;6.818;2023-04-16T06:03:44;8.50;99.90
6407;DHT22;3236;51.022;6.818;2023-04-16T06:06:11;8.60;99.90
6407;DHT22;3236;51.022;6.818;2023-04-16T06:08:38;9.70;99.90
6407;DHT22;3236;51.022;6.818;2023-04-16T06:11:06;8.60;99.90
6407;DHT22;3236;51.022;6.818;2023-04-16T06:13:33;8.70;99.90
6407;DHT22;3236;51.022;6.818;2023-04-16T06:16:01;8.70;99.90
6407;DHT22;3236;51.022;6.818;2023-04-16T06:18:28;8.70;99.90
6407;DHT22;3236;51.022;6.818;2023-04-16T06:20:55;8.70;99.90
6407;DHT22;3236;51.022;6.818;2023-04-16T06:23:26;8.70;99.90
6407;DHT22;3236;51.022;6.818;2023-04-16T06:25:53;8.80;99.90
6407;DHT22;3236;51.022;6.818;2023-04-16T06:28:22;8.70;99.90
6407;DHT22;3236;51.022;6.818;2023-04-16T06:30:49;8.70;99.90
6407;DHT22;3236;51.022;6.818;2023-04-16T06:33:21;8.70;99.90
6407;DHT22;3236;51.022;6.818;2023-04-16T06:35:48;8.70;99.90
6407;DHT22;3236;51.022;6.818;2023-04-16T06:38:15;8.70;99.90
6407;DHT22;3236;51.022;6.818;2023-04-16T06:40:42;8.70;99.90
6407;DHT22;3236;51.022;6.818;2023-04-16T06:43:10;8.70;99.90
6407;DHT22;3236;51.022;6.818;2023-04-16T06:45:42;8.70;99.90
6407;DHT22;3236;51.022;6.818;2023-04-16T06:48:18;8.70;99.90
6407;DHT22;3236;51.022;6.818;2023-04-16T06:50:45;8.70;99.90
6407;DHT22;3236;51.022;6.818;2023-04-16T06:53:12;8.80;99.90
6407;DHT22;3236;51.022;6.818;2023-04-16T06:55:39;8.70;99.90
6407;DHT22;3236;51.022;6.818;2023-04-16T06:58:06;9.30;99.90
6407;DHT22;3236;51.022;6.818;2023-04-16T07:00:33;8.90;99.90
6407;DHT22;3236;51.022;6.818;2023-04-16T07:03:01;9.00;99.90
6407;DHT22;3236;51.022;6.818;2023-04-16T07:05:28;8.90;99.90
6407;DHT22;3236;51.022;6.818;2023-04-16T07:07:56;8.80;99.90
6407;DHT22;3236;51.022;6.818;2023-04-16T07:10:23;8.90;99.90
6407;DHT22;3236;51.022;6.818;2023-04-16T07:12:51;8.90;99.90
6407;DHT22;3236;51.022;6.818;2023-04-16T07:15:18;8.90;99.90
6407;DHT22;3236;51.022;6.818;2023-04-16T07:17:44;9.70;99.90
6407;DHT22;3236;51.022;6.818;2023-04-16T07:20:13;8.90;99.90
6407;DHT22;3236;51.022;6.818;2023-04-16T07:22:40;8.90;99.90
6407;DHT22;3236;51.022;6.818;2023-04-16T07:25:08;8.90;99.90
6407;DHT22;3236;51.022;6.818;2023-04-16T07:27:35;8.90;99.90
6407;DHT22;3236;51.022;6.818;2023-04-16T07:30:02;8.90;99.90
6407;DHT22;3236;51.022;6.818;2023-04-16T07:32:30;8.90;99.90
6407;DHT22;3236;51.022;6.818;2023-04-16T07:34:57;9.00;99.90
6407;DHT22;3236;51.022;6.818;2023-04-16T07:37:25;9.10;99.90
6407;DHT22;3236;51.022;6.818;2023-04-16T07:39:52;9.00;99.90
6407;DHT22;3236;51.022;6.818;2023-04-16T07:42:22;9.10;99.90
6407;DHT22;3236;51.022;6.818;2023-04-16T07:44:50;8.90;99.90
6407;DHT22;3236;51.022;6.818;2023-04-16T07:47:16;9.10;99.90
6407;DHT22;3236;51.022;6.818;2023-04-16T07:49:43;9.10;99.90
6407;DHT22;3236;51.022;6.818;2023-04-16T07:52:11;9.10;99.90
6407;DHT22;3236;51.022;6.818;2023-04-16T07:54:39;9.10;99.90
6407;DHT22;3236;51.022;6.818;2023-04-16T07:57:06;9.10;99.90
6407;DHT22;3236;51.022;6.818;2023-04-16T07:59:33;9.20;99.90
6407;DHT22;3236;51.022;6.818;2023-04-16T08:02:00;9.30;99.90
6407;DHT22;3236;51.022;6.818;2023-04-16T08:04:27;9.40;99.90
6407;DHT22;3236;51.022;6.818;2023-04-16T08:06:54;9.50;99.90
6407;DHT22;3236;51.022;6.818;2023-04-16T08:09:22;9.30;99.90
6407;DHT22;3236;51.022;6.818;2023-04-16T08:11:51;9.50;99.90
6407;DHT22;3236;51.022;6.818;2023-04-16T08:16:45;9.80;99.90
6407;DHT22;3236;51.022;6.818;2023-04-16T08:19:13;10.00;99.90
6407;DHT22;3236;51.022;6.818;2023-04-16T08:21:43;10.00;99.90
6407;DHT22;3236;51.022;6.818;2023-04-16T08:24:10;10.10;99.90
6407;DHT22;3236;51.022;6.818;2023-04-16T08:26:37;10.20;99.90
6407;DHT22;3236;51.022;6.818;2023-04-16T08:29:05;10.30;99.90
6407;DHT22;3236;51.022;6.818;2023-04-16T08:31:32;10.30;99.90
6407;DHT22;3236;51.022;6.818;2023-04-16T08:33:59;10.60;99.90
6407;DHT22;3236;51.022;6.818;2023-04-16T08:36:27;10.80;99.90
6407;DHT22;3236;51.022;6.818;2023-04-16T08:38:54;11.10;99.90
6407;DHT22;3236;51.022;6.818;2023-04-16T08:41:31;11.20;99.90
6407;DHT22;3236;51.022;6.818;2023-04-16T08:44:04;11.20;99.90
6407;DHT22;3236;51.022;6.818;2023-04-16T08:46:36;11.50;99.90
6407;DHT22;3236;51.022;6.818;2023-04-16T08:49:05;11.30;99.90
6407;DHT22;3236;51.022;6.818;2023-04-16T08:51:35;10.90;99.90
6407;DHT22;3236;51.022;6.818;2023-04-16T08:54:03;11.10;99.90
6407;DHT22;3236;51.022;6.818;2023-04-16T08:56:31;11.10;99.90
6407;DHT22;3236;51.022;6.818;2023-04-16T08:59:05;10.80;99.90
6407;DHT22;3236;51.022;6.818;2023-04-16T09:01:34;10.80;99.90
6407;DHT22;3236;51.022;6.818;2023-04-16T09:04:04;11.20;99.90
6407;DHT22;3236;51.022;6.818;2023-04-16T09:06:32;11.10;99.90
6407;DHT22;3236;51.022;6.818;2023-04-16T09:09:00;10.70;99.90
6407;DHT22;3236;51.022;6.818;2023-04-16T09:11:32;11.40;99.90
6407;DHT22;3236;51.022;6.818;2023-04-16T09:16:34;11.20;99.90
6407;DHT22;3236;51.022;6.818;2023-04-16T09:19:01;11.30;99.90
6407;DHT22;3236;51.022;6.818;2023-04-16T09:21:29;11.30;99.90
6407;DHT22;3236;51.022;6.818;2023-04-16T09:23:59;11.70;99.90
6407;DHT22;3236;51.022;6.818;2023-04-16T09:26:27;11.80;99.90
6407;DHT22;3236;51.022;6.818;2023-04-16T09:28:54;11.90;99.90
6407;DHT22;3236;51.022;6.818;2023-04-16T09:31:21;12.30;99.90
6407;DHT22;3236;51.022;6.818;2023-04-16T09:34:02;12.40;99.90
6407;DHT22;3236;51.022;6.818;2023-04-16T09:36:29;12.30;99.90
6407;DHT22;3236;51.022;6.818;2023-04-16T09:38:57;12.10;99.90
6407;DHT22;3236;51.022;6.818;2023-04-16T09:41:28;12.10;99.90
6407;DHT22;3236;51.022;6.818;2023-04-16T09:43:56;12.40;99.90
6407;DHT22;3236;51.022;6.818;2023-04-16T09:46:28;12.40;99.90
6407;DHT22;3236;51.022;6.818;2023-04-16T09:48:55;12.20;99.90
6407;DHT22;3236;51.022;6.818;2023-04-16T09:51:23;12.40;99.90
6407;DHT22;3236;51.022;6.818;2023-04-16T09:53:51;12.40;99.90
6407;DHT22;3236;51.022;6.818;2023-04-16T09:56:22;12.00;99.90
6407;DHT22;3236;51.022;6.818;2023-04-16T09:58:52;12.40;99.90
6407;DHT22;3236;51.022;6.818;2023-04-16T10:01:22;12.10;99.90
6407;DHT22;3236;51.022;6.818;2023-04-16T10:03:52;12.20;99.90
6407;DHT22;3236;51.022;6.818;2023-04-16T10:06:21;12.10;99.90
6407;DHT22;3236;51.022;6.818;2023-04-16T10:08:52;12.20;99.90
6407;DHT22;3236;51.022;6.818;2023-04-16T10:11:27;11.90;99.90
6407;DHT22;3236;51.022;6.818;2023-04-16T10:16:46;12.40;99.90
6407;DHT22;3236;51.022;6.818;2023-04-16T10:19:13;12.40;99.90
6407;DHT22;3236;51.022;6.818;2023-04-16T10:21:43;12.70;99.90
6407;DHT22;3236;51.022;6.818;2023-04-16T10:24:12;12.70;99.90
6407;DHT22;3236;51.022;6.818;2023-04-16T10:26:43;12.60;99.90
6407;DHT22;3236;51.022;6.818;2023-04-16T10:29:11;12.80;99.90
6407;DHT22;3236;51.022;6.818;2023-04-16T10:31:38;12.80;99.90
6407;DHT22;3236;51.022;6.818;2023-04-16T10:34:08;12.80;99.90
6407;DHT22;3236;51.022;6.818;2023-04-16T10:36:36;12.70;99.90
6407;DHT22;3236;51.022;6.818;2023-04-16T10:41:41;12.60;99.90
6407;DHT22;3236;51.022;6.818;2023-04-16T10:44:09;12.50;99.90
6407;DHT22;3236;51.022;6.818;2023-04-16T10:46:38;11.70;99.90
6407;DHT22;3236;51.022;6.818;2023-04-16T10:49:13;12.60;99.90
6407;DHT22;3236;51.022;6.818;2023-04-16T10:52:09;12.70;99.90
6407;DHT22;3236;51.022;6.818;2023-04-16T10:54:39;12.80;99.90
6407;DHT22;3236;51.022;6.818;2023-04-16T10:57:14;12.90;99.90
6407;DHT22;3236;51.022;6.818;2023-04-16T10:59:42;12.90;99.90
6407;DHT22;3236;51.022;6.818;2023-04-16T11:02:13;13.20;99.90
6407;DHT22;3236;51.022;6.818;2023-04-16T11:07:18;12.70;99.90
6407;DHT22;3236;51.022;6.818;2023-04-16T11:12:25;13.40;99.90
6407;DHT22;3236;51.022;6.818;2023-04-16T11:14:58;13.10;99.90
6407;DHT22;3236;51.022;6.818;2023-04-16T11:17:29;13.10;99.90
6407;DHT22;3236;51.022;6.818;2023-04-16T11:19:57;13.20;99.90
6407;DHT22;3236;51.022;6.818;2023-04-16T11:22:25;14.00;99.90
6407;DHT22;3236;51.022;6.818;2023-04-16T11:24:58;14.50;99.90
6407;DHT22;3236;51.022;6.818;2023-04-16T11:32:26;13.50;99.90
6407;DHT22;3236;51.022;6.818;2023-04-16T11:42:26;12.50;99.90
6407;DHT22;3236;51.022;6.818;2023-04-16T11:44:58;13.30;99.90
6407;DHT22;3236;51.022;6.818;2023-04-16T11:47:27;13.00;99.90
6407;DHT22;3236;51.022;6.818;2023-04-16T11:52:26;12.90;99.90
6407;DHT22;3236;51.022;6.818;2023-04-16T11:54:56;12.70;99.90
6407;DHT22;3236;51.022;6.818;2023-04-16T11:57:24;13.20;99.90
6407;DHT22;3236;51.022;6.818;2023-04-16T11:59:52;13.90;99.90
6407;DHT22;3236;51.022;6.818;2023-04-16T12:02:36;13.80;99.90
6407;DHT22;3236;51.022;6.818;2023-04-16T12:05:05;13.80;99.90
6407;DHT22;3236;51.022;6.818;2023-04-16T12:07:43;13.40;99.90
6407;DHT22;3236;51.022;6.818;2023-04-16T12:10:10;13.70;99.90
6407;DHT22;3236;51.022;6.818;2023-04-16T12:12:37;13.30;99.90
6407;DHT22;3236;51.022;6.818;2023-04-16T12:15:05;13.30;99.90
6407;DHT22;3236;51.022;6.818;2023-04-16T12:17:39;13.70;99.90
6407;DHT22;3236;51.022;6.818;2023-04-16T12:20:10;13.80;99.90
6407;DHT22;3236;51.022;6.818;2023-04-16T12:22:39;13.90;99.90
6407;DHT22;3236;51.022;6.818;2023-04-16T12:25:10;15.20;99.90
6407;DHT22;3236;51.022;6.818;2023-04-16T12:27:45;16.20;99.90
6407;DHT22;3236;51.022;6.818;2023-04-16T12:30:14;16.10;99.90
6407;DHT22;3236;51.022;6.818;2023-04-16T12:32:45;15.50;99.90
6407;DHT22;3236;51.022;6.818;2023-04-16T12:35:12;15.10;99.90
6407;DHT22;3236;51.022;6.818;2023-04-16T12:37:39;15.00;99.90
6407;DHT22;3236;51.022;6.818;2023-04-16T12:40:07;15.40;99.90
6407;DHT22;3236;51.022;6.818;2023-04-16T12:42:34;15.80;99.90
6407;DHT22;3236;51.022;6.818;2023-04-16T12:45:02;16.90;99.90
6407;DHT22;3236;51.022;6.818;2023-04-16T12:47:30;17.60;99.90
6407;DHT22;3236;51.022;6.818;2023-04-16T12:49:59;19.00;99.90
6407;DHT22;3236;51.022;6.818;2023-04-16T12:52:26;17.60;99.90
6407;DHT22;3236;51.022;6.818;2023-04-16T12:54:54;17.70;99.90
6407;DHT22;3236;51.022;6.818;2023-04-16T12:57:24;17.80;99.90
6407;DHT22;3236;51.022;6.818;2023-04-16T12:59:53;17.60;99.90
6407;DHT22;3236;51.022;6.818;2023-04-16T13:02:24;16.40;99.90
6407;DHT22;3236;51.022;6.818;2023-04-16T13:04:52;16.60;99.90
6407;DHT22;3236;51.022;6.818;2023-04-16T13:07:21;15.70;99.90
6407;DHT22;3236;51.022;6.818;2023-04-16T13:09:52;16.20;99.90
6407;DHT22;3236;51.022;6.818;2023-04-16T13:12:19;15.80;99.90
6407;DHT22;3236;51.022;6.818;2023-04-16T13:14:46;16.10;99.90
6407;DHT22;3236;51.022;6.818;2023-04-16T13:17:13;16.30;99.90
6407;DHT22;3236;51.022;6.818;2023-04-16T13:19:40;16.10;99.90
6407;DHT22;3236;51.022;6.818;2023-04-16T13:22:07;16.00;99.90
6407;DHT22;3236;51.022;6.818;2023-04-16T13:24:36;15.80;99.90
6407;DHT22;3236;51.022;6.818;2023-04-16T13:27:03;15.50;99.90
6407;DHT22;3236;51.022;6.818;2023-04-16T13:29:32;14.80;99.90
6407;DHT22;3236;51.022;6.818;2023-04-16T13:32:01;14.70;99.90
6407;DHT22;3236;51.022;6.818;2023-04-16T13:34:28;14.90;99.90
6407;DHT22;3236;51.022;6.818;2023-04-16T13:36:56;14.60;99.90
6407;DHT22;3236;51.022;6.818;2023-04-16T13:39:24;14.60;99.90
6407;DHT22;3236;51.022;6.818;2023-04-16T13:41:53;14.20;99.90
6407;DHT22;3236;51.022;6.818;2023-04-16T13:44:20;14.60;99.90
6407;DHT22;3236;51.022;6.818;2023-04-16T13:46:47;14.60;99.90
6407;DHT22;3236;51.022;6.818;2023-04-16T13:49:16;15.00;99.90
6407;DHT22;3236;51.022;6.818;2023-04-16T13:51:44;14.80;99.90
6407;DHT22;3236;51.022;6.818;2023-04-16T13:54:11;14.80;99.90
6407;DHT22;3236;51.022;6.818;2023-04-16T13:56:46;14.90;99.90
6407;DHT22;3236;51.022;6.818;2023-04-16T13:59:19;14.80;99.90
6407;DHT22;3236;51.022;6.818;2023-04-16T14:01:52;15.10;99.90
6407;DHT22;3236;51.022;6.818;2023-04-16T14:04:19;15.10;99.90
6407;DHT22;3236;51.022;6.818;2023-04-16T14:06:47;14.90;99.90
6407;DHT22;3236;51.022;6.818;2023-04-16T14:09:14;15.10;99.90
6407;DHT22;3236;51.022;6.818;2023-04-16T14:11:41;14.80;99.90
6407;DHT22;3236;51.022;6.818;2023-04-16T14:14:08;14.70;99.90
6407;DHT22;3236;51.022;6.818;2023-04-16T14:16:42;14.60;99.90
6407;DHT22;3236;51.022;6.818;2023-04-16T14:19:09;14.10;99.90
6407;DHT22;3236;51.022;6.818;2023-04-16T14:24:04;14.40;99.90
6407;DHT22;3236;51.022;6.818;2023-04-16T14:26:31;14.90;99.90
6407;DHT22;3236;51.022;6.818;2023-04-16T14:28:59;15.30;99.90
6407;DHT22;3236;51.022;6.818;2023-04-16T14:31:26;16.30;99.90
6407;DHT22;3236;51.022;6.818;2023-04-16T14:33:55;17.00;99.90
6407;DHT22;3236;51.022;6.818;2023-04-16T14:36:22;16.50;99.90
6407;DHT22;3236;51.022;6.818;2023-04-16T14:38:49;16.40;99.90
6407;DHT22;3236;51.022;6.818;2023-04-16T14:41:16;16.40;99.90
6407;DHT22;3236;51.022;6.818;2023-04-16T14:43:43;16.70;99.90
6407;DHT22;3236;51.022;6.818;2023-04-16T14:46:10;16.80;99.90
6407;DHT22;3236;51.022;6.818;2023-04-16T14:51:05;16.80;99.90
6407;DHT22;3236;51.022;6.818;2023-04-16T14:56:04;17.20;99.90
6407;DHT22;3236;51.022;6.818;2023-04-16T14:58:31;18.20;99.90
6407;DHT22;3236;51.022;6.818;2023-04-16T15:01:00;18.70;99.90
6407;DHT22;3236;51.022;6.818;2023-04-16T15:03:28;18.30;99.30
6407;DHT22;3236;51.022;6.818;2023-04-16T15:05:56;17.80;99.80
6407;DHT22;3236;51.022;6.818;2023-04-16T15:08:24;17.30;99.90
6407;DHT22;3236;51.022;6.818;2023-04-16T15:10:51;17.00;99.90
6407;DHT22;3236;51.022;6.818;2023-04-16T15:13:18;16.60;99.90
6407;DHT22;3236;51.022;6.818;2023-04-16T15:15:45;16.20;99.90
6407;DHT22;3236;51.022;6.818;2023-04-16T15:18:12;15.70;99.90
6407;DHT22;3236;51.022;6.818;2023-04-16T15:20:40;15.30;99.90
6407;DHT22;3236;51.022;6.818;2023-04-16T15:23:07;15.20;99.90
6407;DHT22;3236;51.022;6.818;2023-04-16T15:25:36;15.30;99.90
6407;DHT22;3236;51.022;6.818;2023-04-16T15:28:03;15.30;99.90
6407;DHT22;3236;51.022;6.818;2023-04-16T15:30:31;15.10;99.90
6407;DHT22;3236;51.022;6.818;2023-04-16T15:32:58;15.40;99.90
6407;DHT22;3236;51.022;6.818;2023-04-16T15:35:24;15.10;99.90
6407;DHT22;3236;51.022;6.818;2023-04-16T15:37:52;15.50;99.90
6407;DHT22;3236;51.022;6.818;2023-04-16T15:42:48;15.50;99.90
6407;DHT22;3236;51.022;6.818;2023-04-16T15:45:15;15.50;99.90
6407;DHT22;3236;51.022;6.818;2023-04-16T15:47:42;15.90;99.90
6407;DHT22;3236;51.022;6.818;2023-04-16T15:50:15;15.70;99.90
6407;DHT22;3236;51.022;6.818;2023-04-16T15:52:48;16.00;99.90
6407;DHT22;3236;51.022;6.818;2023-04-16T15:55:16;16.00;99.90
6407;DHT22;3236;51.022;6.818;2023-04-16T15:57:43;16.30;99.90
6407;DHT22;3236;51.022;6.818;2023-04-16T16:00:13;16.50;99.90
6407;DHT22;3236;51.022;6.818;2023-04-16T16:02:44;16.30;99.90
6407;DHT22;3236;51.022;6.818;2023-04-16T16:05:12;16.80;99.90
6407;DHT22;3236;51.022;6.818;2023-04-16T16:10:08;16.50;99.90
6407;DHT22;3236;51.022;6.818;2023-04-16T16:12:42;16.60;99.90
6407;DHT22;3236;51.022;6.818;2023-04-16T16:15:09;16.90;99.90
6407;DHT22;3236;51.022;6.818;2023-04-16T16:17:39;18.50;99.90
6407;DHT22;3236;51.022;6.818;2023-04-16T16:20:06;17.40;99.90
6407;DHT22;3236;51.022;6.818;2023-04-16T16:22:35;16.60;99.90
6407;DHT22;3236;51.022;6.818;2023-04-16T16:25:03;16.40;99.90
6407;DHT22;3236;51.022;6.818;2023-04-16T16:27:41;15.50;99.90
6407;DHT22;3236;51.022;6.818;2023-04-16T16:30:09;15.40;99.90
6407;DHT22;3236;51.022;6.818;2023-04-16T16:32:38;15.00;99.90
6407;DHT22;3236;51.022;6.818;2023-04-16T16:35:08;14.60;99.90
6407;DHT22;3236;51.022;6.818;2023-04-16T16:37:37;14.70;99.90
6407;DHT22;3236;51.022;6.818;2023-04-16T16:40:05;14.40;99.90
6407;DHT22;3236;51.022;6.818;2023-04-16T16:42:33;14.50;99.90
6407;DHT22;3236;51.022;6.818;2023-04-16T16:47:31;14.40;99.90
6407;DHT22;3236;51.022;6.818;2023-04-16T16:49:59;14.40;99.90
6407;DHT22;3236;51.022;6.818;2023-04-16T16:52:27;14.10;99.90
6407;DHT22;3236;51.022;6.818;2023-04-16T16:54:57;14.00;99.90
6407;DHT22;3236;51.022;6.818;2023-04-16T16:57:30;13.70;99.90
6407;DHT22;3236;51.022;6.818;2023-04-16T17:02:27;13.20;99.90
6407;DHT22;3236;51.022;6.818;2023-04-16T17:12:27;12.50;99.90
6407;DHT22;3236;51.022;6.818;2023-04-16T17:14:54;12.40;99.90
6407;DHT22;3236;51.022;6.818;2023-04-16T17:17:21;12.80;99.90
6407;DHT22;3236;51.022;6.818;2023-04-16T17:19:48;12.60;99.90